createdAt,value
2023-05-12T00:04:54.069Z,99385.47
2023-05-12T00:09:56.797Z,99390.78
2023-05-12T00:14:59.647Z,99385.50
2023-05-12T00:20:03.023Z,99378.53
2023-05-12T00:25:08.957Z,99379.25
2023-05-12T00:30:12.165Z,99375.31
2023-05-12T00:35:33.613Z,99374.25
2023-05-12T00:40:36.686Z,99375.38
2023-05-12T00:45:39.987Z,99369.88
2023-05-12T00:50:43.110Z,99366.09
2023-05-12T00:55:46.374Z,99364.13
2023-05-12T01:00:49.448Z,99366.72
2023-05-12T01:06:06.748Z,99364.78
2023-05-12T01:11:27.777Z,99368.19
2023-05-12T01:16:39.623Z,99362.38
2023-05-12T01:21:42.621Z,99375.81
2023-05-12T01:26:46.197Z,99377.31
2023-05-12T01:31:49.362Z,99385.94
2023-05-12T01:36:52.514Z,99389.00
2023-05-12T01:41:56.472Z,99392.59
2023-05-12T01:47:00.053Z,99394.16
2023-05-12T01:52:03.954Z,99391.06
2023-05-12T01:57:07.883Z,99391.47
2023-05-12T02:02:12.951Z,99394.72
2023-05-12T02:07:16.028Z,99380.47
2023-05-12T02:12:20.869Z,99390.78
2023-05-12T02:17:25.339Z,99384.31
2023-05-12T02:22:28.544Z,99383.84
2023-05-12T02:27:32.687Z,99390.78
2023-05-12T02:32:36.079Z,99384.25
2023-05-12T02:37:41.726Z,99386.13
2023-05-12T02:42:45.783Z,99387.25
2023-05-12T02:47:48.852Z,99385.25
2023-05-12T02:52:52.443Z,99384.84
2023-05-12T02:57:55.368Z,99380.94
2023-05-12T03:03:16.499Z,99394.88
2023-05-12T03:08:19.782Z,99388.66
2023-05-12T03:13:22.917Z,99388.84
2023-05-12T03:18:26.655Z,99396.69
2023-05-12T03:23:48.482Z,99391.50
2023-05-12T03:28:51.882Z,99389.03
2023-05-12T03:33:55.016Z,99395.06
2023-05-12T03:38:58.523Z,99397.31
2023-05-12T03:44:01.534Z,99396.06
2023-05-12T03:49:05.920Z,99409.34
2023-05-12T03:54:09.102Z,99404.91
2023-05-12T03:59:12.463Z,99405.59
2023-05-12T04:04:15.481Z,99401.56
2023-05-12T04:09:18.615Z,99408.13
2023-05-12T04:14:28.992Z,99400.28
2023-05-12T04:19:38.908Z,99406.28
2023-05-12T04:24:41.855Z,99410.31
2023-05-12T04:29:45.239Z,99415.41
2023-05-12T04:34:48.666Z,99421.22
2023-05-12T04:39:51.606Z,99421.00
2023-05-12T04:44:54.849Z,99411.78
2023-05-12T04:49:57.813Z,99416.06
2023-05-12T04:55:00.701Z,99412.16
2023-05-12T05:00:05.976Z,99413.53
2023-05-12T05:05:11.148Z,99410.97
2023-05-12T05:10:14.373Z,99408.19
2023-05-12T05:15:36.012Z,99405.06
2023-05-12T05:20:40.781Z,99414.94
2023-05-12T05:25:45.857Z,99420.38
2023-05-12T05:30:49.286Z,99423.59
2023-05-12T05:35:53.449Z,99422.59
2023-05-12T05:40:56.556Z,99426.13
2023-05-12T05:46:01.322Z,99421.66
2023-05-12T05:51:05.388Z,99421.75
2023-05-12T05:56:08.842Z,99421.00
2023-05-12T06:01:30.905Z,99431.59
2023-05-12T06:06:34.264Z,99427.91
2023-05-12T06:11:37.068Z,99415.53
2023-05-12T06:16:58.179Z,99435.19
2023-05-12T06:22:01.085Z,99426.31
2023-05-12T06:27:03.878Z,99433.47
2023-05-12T06:32:07.429Z,99430.75
2023-05-12T06:37:10.575Z,99427.66
2023-05-12T06:42:13.671Z,99429.25
2023-05-12T06:47:17.944Z,99424.28
2023-05-12T06:52:24.031Z,99431.81
2023-05-12T06:57:27.003Z,99437.53
2023-05-12T07:02:30.953Z,99434.88
2023-05-12T07:07:34.169Z,99441.56
2023-05-12T07:12:38.370Z,99435.63
2023-05-12T07:17:41.370Z,99436.25
2023-05-12T07:22:44.414Z,99431.78
2023-05-12T07:27:47.409Z,99433.38
2023-05-12T07:32:50.545Z,99437.28
2023-05-12T07:37:53.700Z,99436.63
2023-05-12T07:42:56.715Z,99428.22
2023-05-12T07:47:59.946Z,99423.59
2023-05-12T07:53:03.095Z,99413.47
2023-05-12T07:58:06.215Z,99414.66
2023-05-12T08:03:09.360Z,99400.41
2023-05-12T08:08:16.936Z,99406.31
2023-05-12T08:13:38.766Z,99409.66
2023-05-12T08:19:00.179Z,99411.78
2023-05-12T08:24:03.203Z,99398.84
2023-05-12T08:29:07.054Z,99392.81
2023-05-12T08:34:11.205Z,99389.72
2023-05-12T08:39:14.802Z,99390.00
2023-05-12T08:44:19.619Z,99383.47
2023-05-12T08:49:25.001Z,99382.31
2023-05-12T08:54:29.231Z,99383.31
2023-05-12T08:59:33.845Z,99368.41
2023-05-12T09:04:38.635Z,99376.13
2023-05-12T09:09:45.413Z,99376.66
2023-05-12T09:15:00.153Z,99376.16
2023-05-12T09:20:04.469Z,99380.56
2023-05-12T09:25:18.984Z,99375.09
2023-05-12T09:30:42.692Z,99383.59
2023-05-12T09:35:46.511Z,99379.63
2023-05-12T09:40:49.662Z,99383.41
2023-05-12T09:45:52.701Z,99382.28
2023-05-12T09:50:55.973Z,99376.22
2023-05-12T09:56:00.145Z,99393.44
2023-05-12T10:01:21.002Z,99393.25
2023-05-12T10:06:30.443Z,99382.03
2023-05-12T10:11:53.954Z,99382.09
2023-05-12T10:16:59.580Z,99383.41
2023-05-12T10:22:04.247Z,99394.47
2023-05-12T10:27:07.906Z,99402.25
2023-05-12T10:32:11.076Z,99389.97
2023-05-12T10:37:14.137Z,99406.63
2023-05-12T10:42:25.285Z,99395.09
2023-05-12T10:47:38.171Z,99394.41
2023-05-12T10:53:02.457Z,99390.88
2023-05-12T10:58:18.141Z,99388.00
2023-05-12T11:03:26.036Z,99388.00
2023-05-12T11:08:32.398Z,99391.22
2023-05-12T11:13:35.978Z,99405.97
2023-05-12T11:18:39.127Z,99425.38
2023-05-12T11:23:42.033Z,99425.38
2023-05-12T11:28:44.731Z,99420.25
2023-05-12T11:33:51.839Z,99405.97
2023-05-12T11:39:01.591Z,99416.13
2023-05-12T11:44:31.062Z,99464.06
2023-05-12T11:49:34.997Z,99425.16
2023-05-12T11:54:38.260Z,99416.72
2023-05-12T11:59:41.194Z,99444.63
2023-05-12T12:04:44.237Z,99419.56
2023-05-12T12:09:47.294Z,99414.50
2023-05-12T12:15:10.002Z,99410.19
2023-05-12T12:20:12.975Z,99420.69
2023-05-12T12:25:15.945Z,99416.41
2023-05-12T12:30:19.216Z,99414.06
2023-05-12T12:35:40.971Z,99413.16
2023-05-12T12:40:43.904Z,99421.03
2023-05-12T12:45:46.905Z,99425.09
2023-05-12T12:50:49.916Z,99416.13
2023-05-12T12:55:53.038Z,99440.25
2023-05-12T13:00:56.465Z,99434.13
2023-05-12T13:06:00.076Z,99430.16
2023-05-12T13:11:03.289Z,99433.78
2023-05-12T13:16:06.761Z,99438.03
2023-05-12T13:21:10.020Z,99426.50
2023-05-12T13:26:13.009Z,99433.94
2023-05-12T13:31:16.057Z,99443.75
2023-05-12T13:36:19.090Z,99456.00
2023-05-12T13:41:22.006Z,99433.66
2023-05-12T13:46:25.018Z,99442.59
2023-05-12T13:51:28.113Z,99444.09
2023-05-12T13:56:32.444Z,99434.63
2023-05-12T14:01:36.041Z,99444.66
2023-05-12T14:06:39.265Z,99442.69
2023-05-12T14:11:42.246Z,99449.03
2023-05-12T14:16:45.246Z,99451.88
2023-05-12T14:21:48.268Z,99447.28
2023-05-12T14:26:51.211Z,99441.31
2023-05-12T14:31:54.243Z,99444.69
2023-05-12T14:36:57.085Z,99452.31
2023-05-12T14:42:00.157Z,99450.53
2023-05-12T14:47:03.033Z,99445.06
2023-05-12T14:52:06.828Z,99439.78
2023-05-12T14:57:10.782Z,99446.56
2023-05-12T15:02:13.748Z,99457.09
2023-05-12T15:07:36.281Z,99463.47
2023-05-12T15:12:39.240Z,99470.06
2023-05-12T15:17:42.968Z,99479.75
2023-05-12T15:23:04.561Z,99484.03
2023-05-12T15:28:07.915Z,99489.63
2023-05-12T15:33:11.231Z,99494.50
2023-05-12T15:38:14.258Z,99499.00
2023-05-12T15:43:18.371Z,99497.41
2023-05-12T15:48:21.810Z,99499.38
2023-05-12T15:53:24.906Z,99498.13
2023-05-12T15:58:28.614Z,99503.00
2023-05-12T16:03:32.014Z,99499.81
2023-05-12T16:08:35.475Z,99499.91
2023-05-12T16:13:38.889Z,99505.91
2023-05-12T16:18:43.172Z,99515.59
2023-05-12T16:23:46.096Z,99502.91
2023-05-12T16:29:07.749Z,99511.91
2023-05-12T16:34:10.742Z,99505.31
2023-05-12T16:39:14.185Z,99521.78
2023-05-12T16:44:16.990Z,99533.34
2023-05-12T16:49:19.761Z,99531.25
2023-05-12T16:54:22.561Z,99532.84
2023-05-12T16:59:25.786Z,99537.94
2023-05-12T17:04:28.751Z,99539.00
2023-05-12T17:09:31.648Z,99544.22
2023-05-12T17:14:38.198Z,99549.69
2023-05-12T17:19:42.247Z,99561.97
2023-05-12T17:24:45.312Z,99565.97
2023-05-12T17:29:48.276Z,99567.38
2023-05-12T17:34:51.434Z,99583.44
2023-05-12T17:39:54.398Z,99582.16
2023-05-12T17:45:16.631Z,99590.34
2023-05-12T17:50:19.862Z,99592.97
2023-05-12T17:55:23.282Z,99590.13
2023-05-12T18:00:26.416Z,99596.91
2023-05-12T18:05:29.361Z,99585.06
2023-05-12T18:10:32.613Z,99595.63
2023-05-12T18:15:36.008Z,99588.81
2023-05-12T18:20:39.022Z,99592.94
2023-05-12T18:25:42.993Z,99608.00
2023-05-12T18:30:45.849Z,99597.13
2023-05-12T18:35:48.782Z,99600.03
2023-05-12T18:40:51.690Z,99604.50
2023-05-12T18:45:54.563Z,99608.53
2023-05-12T18:50:57.886Z,99606.75
2023-05-12T18:56:00.954Z,99610.56
2023-05-12T19:01:05.283Z,99609.88
2023-05-12T19:06:09.559Z,99617.44
2023-05-12T19:11:12.659Z,99605.19
2023-05-12T19:16:15.522Z,99625.00
2023-05-12T19:21:18.491Z,99636.81
2023-05-12T19:26:21.315Z,99631.72
2023-05-12T19:31:24.136Z,99630.34
2023-05-12T19:36:29.097Z,99633.00
2023-05-12T19:41:32.326Z,99625.50
2023-05-12T19:46:35.177Z,99616.59
2023-05-12T19:51:38.111Z,99620.59
2023-05-12T19:56:41.143Z,99637.91
2023-05-12T20:01:44.237Z,99631.06
2023-05-12T20:06:47.139Z,99628.59
2023-05-12T20:11:50.761Z,99635.06
2023-05-12T20:16:53.796Z,99627.50
2023-05-12T20:21:56.998Z,99631.56
2023-05-12T20:26:59.965Z,99624.63
2023-05-12T20:32:03.043Z,99632.56
2023-05-12T20:37:06.246Z,99622.66
2023-05-12T20:42:11.937Z,99630.94
2023-05-12T20:47:14.650Z,99631.69
2023-05-12T20:52:41.008Z,99633.13
2023-05-12T20:58:02.608Z,99637.78
2023-05-12T21:03:06.242Z,99634.41
2023-05-12T21:08:27.810Z,99633.75
2023-05-12T21:13:31.256Z,99633.75
2023-05-12T21:18:34.385Z,99649.47
2023-05-12T21:23:37.922Z,99644.91
2023-05-12T21:28:40.936Z,99645.81
2023-05-12T21:33:43.886Z,99644.16
2023-05-12T21:38:46.799Z,99636.16
2023-05-12T21:43:49.754Z,99644.28
2023-05-12T21:48:53.294Z,99647.44
2023-05-12T21:53:56.321Z,99642.81
2023-05-12T21:58:59.154Z,99639.81
2023-05-12T22:04:02.190Z,99643.44
2023-05-12T22:09:05.281Z,99639.78
2023-05-12T22:14:08.613Z,99650.03
2023-05-12T22:19:11.506Z,99642.34
2023-05-12T22:24:14.445Z,99648.25
2023-05-12T22:29:17.269Z,99642.16
2023-05-12T22:34:20.109Z,99650.16
2023-05-12T22:39:23.109Z,99642.84
2023-05-12T22:44:25.950Z,99645.88
2023-05-12T22:49:28.925Z,99645.88
2023-05-12T22:54:31.957Z,99640.06
2023-05-12T22:59:34.846Z,99637.44
2023-05-12T23:04:37.744Z,99646.72
2023-05-12T23:09:40.670Z,99647.69
2023-05-12T23:14:44.068Z,99646.50
2023-05-12T23:19:47.001Z,99645.78
2023-05-12T23:24:50.041Z,99653.84
2023-05-12T23:29:53.586Z,99652.06
2023-05-12T23:34:56.687Z,99641.75
2023-05-12T23:39:59.655Z,99633.16
2023-05-12T23:45:02.614Z,99644.28
2023-05-12T23:50:07.806Z,99646.97
2023-05-12T23:55:11.837Z,99649.72
